sensor_id;sensor_type;location;lat;lon;timestamp;P1;durP1;ratioP1;P2;durP2;ratioP2
10230;SDS011;62604;49.432;8.680;2024-02-15T00:01:09;4.40;;;3.50;;
10230;SDS011;62604;49.432;8.680;2024-02-15T00:03:40;5.93;;;3.50;;
10230;SDS011;62604;49.432;8.680;2024-02-15T00:06:07;5.23;;;3.57;;
10230;SDS011;62604;49.432;8.680;2024-02-15T00:08:41;4.03;;;3.60;;
10230;SDS011;62604;49.432;8.680;2024-02-15T00:11:12;4.00;;;3.70;;
10230;SDS011;62604;49.432;8.680;2024-02-15T00:13:40;4.83;;;3.80;;
10230;SDS011;62604;49.432;8.680;2024-02-15T00:16:08;3.87;;;3.00;;
10230;SDS011;62604;49.432;8.680;2024-02-15T00:18:41;4.40;;;3.57;;
10230;SDS011;62604;49.432;8.680;2024-02-15T00:21:08;5.10;;;3.50;;
10230;SDS011;62604;49.432;8.680;2024-02-15T00:23:36;3.90;;;3.27;;
10230;SDS011;62604;49.432;8.680;2024-02-15T00:26:05;4.70;;;3.10;;
10230;SDS011;62604;49.432;8.680;2024-02-15T00:28:32;4.77;;;3.37;;
10230;SDS011;62604;49.432;8.680;2024-02-15T00:30:59;3.47;;;3.00;;
10230;SDS011;62604;49.432;8.680;2024-02-15T00:33:26;4.00;;;3.23;;
10230;SDS011;62604;49.432;8.680;2024-02-15T00:35:54;3.40;;;3.10;;
10230;SDS011;62604;49.432;8.680;2024-02-15T00:38:22;2.77;;;2.57;;
10230;SDS011;62604;49.432;8.680;2024-02-15T00:40:49;2.77;;;2.57;;
10230;SDS011;62604;49.432;8.680;2024-02-15T00:43:16;3.50;;;3.20;;
10230;SDS011;62604;49.432;8.680;2024-02-15T00:45:43;3.70;;;2.90;;
10230;SDS011;62604;49.432;8.680;2024-02-15T00:48:10;3.90;;;3.30;;
10230;SDS011;62604;49.432;8.680;2024-02-15T00:50:37;3.53;;;3.03;;
10230;SDS011;62604;49.432;8.680;2024-02-15T00:53:05;3.20;;;2.90;;
10230;SDS011;62604;49.432;8.680;2024-02-15T00:55:32;4.10;;;2.90;;
10230;SDS011;62604;49.432;8.680;2024-02-15T00:57:59;3.07;;;2.70;;
10230;SDS011;62604;49.432;8.680;2024-02-15T01:00:26;3.47;;;3.00;;
10230;SDS011;62604;49.432;8.680;2024-02-15T01:02:53;4.03;;;3.63;;
10230;SDS011;62604;49.432;8.680;2024-02-15T01:05:20;2.70;;;2.50;;
10230;SDS011;62604;49.432;8.680;2024-02-15T01:07:49;3.73;;;3.40;;
10230;SDS011;62604;49.432;8.680;2024-02-15T01:10:18;3.87;;;3.17;;
10230;SDS011;62604;49.432;8.680;2024-02-15T01:12:45;3.20;;;2.97;;
10230;SDS011;62604;49.432;8.680;2024-02-15T01:15:12;5.67;;;3.60;;
10230;SDS011;62604;49.432;8.680;2024-02-15T01:17:39;4.03;;;3.30;;
10230;SDS011;62604;49.432;8.680;2024-02-15T01:20:07;4.00;;;3.60;;
10230;SDS011;62604;49.432;8.680;2024-02-15T01:22:34;3.87;;;3.43;;
10230;SDS011;62604;49.432;8.680;2024-02-15T01:25:01;6.10;;;3.40;;
10230;SDS011;62604;49.432;8.680;2024-02-15T01:27:30;6.63;;;3.97;;
10230;SDS011;62604;49.432;8.680;2024-02-15T01:29:57;6.80;;;3.90;;
10230;SDS011;62604;49.432;8.680;2024-02-15T01:32:23;3.80;;;3.43;;
10230;SDS011;62604;49.432;8.680;2024-02-15T01:34:50;4.23;;;3.10;;
10230;SDS011;62604;49.432;8.680;2024-02-15T01:37:19;5.43;;;3.40;;
10230;SDS011;62604;49.432;8.680;2024-02-15T01:39:48;3.50;;;3.20;;
10230;SDS011;62604;49.432;8.680;2024-02-15T01:42:17;3.43;;;3.10;;
10230;SDS011;62604;49.432;8.680;2024-02-15T01:44:45;4.07;;;3.20;;
10230;SDS011;62604;49.432;8.680;2024-02-15T01:47:14;3.50;;;3.20;;
10230;SDS011;62604;49.432;8.680;2024-02-15T01:49:44;4.60;;;3.17;;
10230;SDS011;62604;49.432;8.680;2024-02-15T01:52:13;6.20;;;3.10;;
10230;SDS011;62604;49.432;8.680;2024-02-15T01:54:40;4.13;;;3.53;;
10230;SDS011;62604;49.432;8.680;2024-02-15T01:57:08;3.20;;;2.90;;
10230;SDS011;62604;49.432;8.680;2024-02-15T01:59:34;3.70;;;3.40;;
10230;SDS011;62604;49.432;8.680;2024-02-15T02:02:03;3.97;;;2.70;;
10230;SDS011;62604;49.432;8.680;2024-02-15T02:04:34;3.67;;;3.23;;
10230;SDS011;62604;49.432;8.680;2024-02-15T02:07:01;3.17;;;2.87;;
10230;SDS011;62604;49.432;8.680;2024-02-15T02:09:28;5.37;;;3.20;;
10230;SDS011;62604;49.432;8.680;2024-02-15T02:11:55;3.40;;;3.10;;
10230;SDS011;62604;49.432;8.680;2024-02-15T02:14:23;3.23;;;2.83;;
10230;SDS011;62604;49.432;8.680;2024-02-15T02:16:50;3.43;;;3.00;;
10230;SDS011;62604;49.432;8.680;2024-02-15T02:19:18;3.17;;;2.90;;
10230;SDS011;62604;49.432;8.680;2024-02-15T02:21:45;4.43;;;3.03;;
10230;SDS011;62604;49.432;8.680;2024-02-15T02:24:17;5.13;;;3.20;;
10230;SDS011;62604;49.432;8.680;2024-02-15T02:26:48;4.87;;;3.10;;
10230;SDS011;62604;49.432;8.680;2024-02-15T02:29:16;2.83;;;2.63;;
10230;SDS011;62604;49.432;8.680;2024-02-15T02:31:43;5.63;;;3.07;;
10230;SDS011;62604;49.432;8.680;2024-02-15T02:34:10;7.47;;;3.00;;
10230;SDS011;62604;49.432;8.680;2024-02-15T02:36:38;5.67;;;2.93;;
10230;SDS011;62604;49.432;8.680;2024-02-15T02:39:06;4.80;;;3.10;;
10230;SDS011;62604;49.432;8.680;2024-02-15T02:41:33;3.80;;;3.40;;
10230;SDS011;62604;49.432;8.680;2024-02-15T02:44:01;3.20;;;2.83;;
10230;SDS011;62604;49.432;8.680;2024-02-15T02:46:28;3.60;;;2.90;;
10230;SDS011;62604;49.432;8.680;2024-02-15T02:48:55;3.60;;;2.90;;
10230;SDS011;62604;49.432;8.680;2024-02-15T02:51:22;3.07;;;2.77;;
10230;SDS011;62604;49.432;8.680;2024-02-15T02:53:49;4.33;;;2.90;;
10230;SDS011;62604;49.432;8.680;2024-02-15T02:56:16;5.60;;;3.00;;
10230;SDS011;62604;49.432;8.680;2024-02-15T02:58:43;3.13;;;2.83;;
10230;SDS011;62604;49.432;8.680;2024-02-15T03:01:12;3.10;;;2.80;;
10230;SDS011;62604;49.432;8.680;2024-02-15T03:03:39;3.00;;;2.70;;
10230;SDS011;62604;49.432;8.680;2024-02-15T03:06:06;4.07;;;2.83;;
10230;SDS011;62604;49.432;8.680;2024-02-15T03:08:33;4.50;;;3.07;;
10230;SDS011;62604;49.432;8.680;2024-02-15T03:11:00;5.63;;;3.40;;
10230;SDS011;62604;49.432;8.680;2024-02-15T03:13:28;4.00;;;2.73;;
10230;SDS011;62604;49.432;8.680;2024-02-15T03:15:55;4.63;;;2.90;;
10230;SDS011;62604;49.432;8.680;2024-02-15T03:18:23;4.53;;;2.70;;
10230;SDS011;62604;49.432;8.680;2024-02-15T03:20:49;5.00;;;2.97;;
10230;SDS011;62604;49.432;8.680;2024-02-15T03:23:16;5.90;;;2.83;;
10230;SDS011;62604;49.432;8.680;2024-02-15T03:25:43;8.40;;;2.80;;
10230;SDS011;62604;49.432;8.680;2024-02-15T03:28:10;2.70;;;2.50;;
10230;SDS011;62604;49.432;8.680;2024-02-15T03:30:37;4.17;;;2.60;;
10230;SDS011;62604;49.432;8.680;2024-02-15T03:33:04;5.53;;;2.80;;
10230;SDS011;62604;49.432;8.680;2024-02-15T03:35:33;3.17;;;2.73;;
10230;SDS011;62604;49.432;8.680;2024-02-15T03:38:00;3.63;;;2.83;;
10230;SDS011;62604;49.432;8.680;2024-02-15T03:40:27;5.33;;;3.43;;
10230;SDS011;62604;49.432;8.680;2024-02-15T03:42:55;4.77;;;3.10;;
10230;SDS011;62604;49.432;8.680;2024-02-15T03:45:22;4.30;;;3.37;;
10230;SDS011;62604;49.432;8.680;2024-02-15T03:47:50;3.53;;;2.73;;
10230;SDS011;62604;49.432;8.680;2024-02-15T03:50:17;3.50;;;2.73;;
10230;SDS011;62604;49.432;8.680;2024-02-15T03:52:48;2.93;;;2.63;;
10230;SDS011;62604;49.432;8.680;2024-02-15T03:55:15;3.07;;;2.80;;
10230;SDS011;62604;49.432;8.680;2024-02-15T03:57:42;2.80;;;2.40;;
10230;SDS011;62604;49.432;8.680;2024-02-15T04:00:11;3.20;;;2.90;;
10230;SDS011;62604;49.432;8.680;2024-02-15T04:02:40;4.17;;;3.03;;
10230;SDS011;62604;49.432;8.680;2024-02-15T04:05:07;3.53;;;3.13;;
10230;SDS011;62604;49.432;8.680;2024-02-15T04:07:37;4.87;;;2.43;;
10230;SDS011;62604;49.432;8.680;2024-02-15T04:10:06;3.03;;;2.60;;
10230;SDS011;62604;49.432;8.680;2024-02-15T04:12:34;3.80;;;2.90;;
10230;SDS011;62604;49.432;8.680;2024-02-15T04:15:01;3.50;;;3.20;;
10230;SDS011;62604;49.432;8.680;2024-02-15T04:17:32;4.77;;;2.47;;
10230;SDS011;62604;49.432;8.680;2024-02-15T04:20:00;4.43;;;3.50;;
10230;SDS011;62604;49.432;8.680;2024-02-15T04:22:28;2.97;;;2.67;;
10230;SDS011;62604;49.432;8.680;2024-02-15T04:24:57;3.53;;;3.07;;
10230;SDS011;62604;49.432;8.680;2024-02-15T04:27:25;5.50;;;3.40;;
10230;SDS011;62604;49.432;8.680;2024-02-15T04:29:52;3.67;;;2.87;;
10230;SDS011;62604;49.432;8.680;2024-02-15T04:32:19;4.20;;;2.87;;
10230;SDS011;62604;49.432;8.680;2024-02-15T04:34:47;3.63;;;2.70;;
10230;SDS011;62604;49.432;8.680;2024-02-15T04:37:14;3.00;;;2.80;;
10230;SDS011;62604;49.432;8.680;2024-02-15T04:39:42;3.00;;;2.70;;
10230;SDS011;62604;49.432;8.680;2024-02-15T04:42:09;2.80;;;2.50;;
10230;SDS011;62604;49.432;8.680;2024-02-15T04:44:39;6.33;;;2.77;;
10230;SDS011;62604;49.432;8.680;2024-02-15T04:47:06;3.30;;;2.80;;
10230;SDS011;62604;49.432;8.680;2024-02-15T04:49:33;4.97;;;2.87;;
10230;SDS011;62604;49.432;8.680;2024-02-15T04:52:03;4.63;;;3.20;;
10230;SDS011;62604;49.432;8.680;2024-02-15T04:54:31;4.07;;;2.83;;
10230;SDS011;62604;49.432;8.680;2024-02-15T04:56:59;4.23;;;3.03;;
10230;SDS011;62604;49.432;8.680;2024-02-15T04:59:26;2.40;;;2.20;;
10230;SDS011;62604;49.432;8.680;2024-02-15T05:01:55;3.23;;;2.93;;
10230;SDS011;62604;49.432;8.680;2024-02-15T05:04:22;3.70;;;2.97;;
10230;SDS011;62604;49.432;8.680;2024-02-15T05:06:49;2.97;;;2.60;;
10230;SDS011;62604;49.432;8.680;2024-02-15T05:09:17;3.20;;;2.60;;
10230;SDS011;62604;49.432;8.680;2024-02-15T05:11:44;3.70;;;3.10;;
10230;SDS011;62604;49.432;8.680;2024-02-15T05:14:13;4.40;;;2.70;;
10230;SDS011;62604;49.432;8.680;2024-02-15T05:16:44;7.30;;;3.30;;
10230;SDS011;62604;49.432;8.680;2024-02-15T05:19:14;7.63;;;2.80;;
10230;SDS011;62604;49.432;8.680;2024-02-15T05:21:42;4.53;;;2.70;;
10230;SDS011;62604;49.432;8.680;2024-02-15T05:24:11;3.57;;;2.70;;
10230;SDS011;62604;49.432;8.680;2024-02-15T05:26:39;3.47;;;2.63;;
10230;SDS011;62604;49.432;8.680;2024-02-15T05:29:07;4.93;;;2.67;;
10230;SDS011;62604;49.432;8.680;2024-02-15T05:31:36;3.70;;;2.80;;
10230;SDS011;62604;49.432;8.680;2024-02-15T05:34:05;3.50;;;2.70;;
10230;SDS011;62604;49.432;8.680;2024-02-15T05:36:38;6.17;;;3.20;;
10230;SDS011;62604;49.432;8.680;2024-02-15T05:39:05;3.13;;;2.73;;
10230;SDS011;62604;49.432;8.680;2024-02-15T05:41:32;6.80;;;2.30;;
10230;SDS011;62604;49.432;8.680;2024-02-15T05:43:59;3.13;;;2.77;;
10230;SDS011;62604;49.432;8.680;2024-02-15T05:46:26;5.70;;;2.40;;
10230;SDS011;62604;49.432;8.680;2024-02-15T05:48:54;4.77;;;2.43;;
10230;SDS011;62604;49.432;8.680;2024-02-15T05:51:21;4.03;;;2.47;;
10230;SDS011;62604;49.432;8.680;2024-02-15T05:53:50;2.40;;;2.20;;
10230;SDS011;62604;49.432;8.680;2024-02-15T05:56:20;2.93;;;2.50;;
10230;SDS011;62604;49.432;8.680;2024-02-15T05:58:47;4.53;;;2.63;;
10230;SDS011;62604;49.432;8.680;2024-02-15T06:01:14;3.43;;;2.60;;
10230;SDS011;62604;49.432;8.680;2024-02-15T06:03:41;2.97;;;2.67;;
10230;SDS011;62604;49.432;8.680;2024-02-15T06:06:09;4.20;;;2.40;;
10230;SDS011;62604;49.432;8.680;2024-02-15T06:08:37;3.43;;;2.80;;
10230;SDS011;62604;49.432;8.680;2024-02-15T06:11:06;3.03;;;2.40;;
10230;SDS011;62604;49.432;8.680;2024-02-15T06:13:34;4.07;;;2.70;;
10230;SDS011;62604;49.432;8.680;2024-02-15T06:16:01;3.70;;;2.63;;
10230;SDS011;62604;49.432;8.680;2024-02-15T06:18:34;5.20;;;2.83;;
10230;SDS011;62604;49.432;8.680;2024-02-15T06:21:02;4.03;;;2.60;;
10230;SDS011;62604;49.432;8.680;2024-02-15T06:23:30;4.57;;;2.53;;
10230;SDS011;62604;49.432;8.680;2024-02-15T06:25:58;7.57;;;3.10;;
10230;SDS011;62604;49.432;8.680;2024-02-15T06:28:27;4.27;;;2.77;;
10230;SDS011;62604;49.432;8.680;2024-02-15T06:31:11;3.80;;;2.87;;
10230;SDS011;62604;49.432;8.680;2024-02-15T06:33:53;3.30;;;2.50;;
10230;SDS011;62604;49.432;8.680;2024-02-15T06:36:39;3.13;;;2.83;;
10230;SDS011;62604;49.432;8.680;2024-02-15T06:39:23;3.47;;;2.90;;
10230;SDS011;62604;49.432;8.680;2024-02-15T06:42:07;5.07;;;2.60;;
10230;SDS011;62604;49.432;8.680;2024-02-15T06:44:35;2.90;;;2.60;;
10230;SDS011;62604;49.432;8.680;2024-02-15T06:47:03;6.37;;;2.80;;
10230;SDS011;62604;49.432;8.680;2024-02-15T06:49:31;5.23;;;2.90;;
10230;SDS011;62604;49.432;8.680;2024-02-15T06:51:59;4.30;;;2.50;;
10230;SDS011;62604;49.432;8.680;2024-02-15T06:54:27;3.30;;;2.53;;
10230;SDS011;62604;49.432;8.680;2024-02-15T06:56:54;2.80;;;2.50;;
10230;SDS011;62604;49.432;8.680;2024-02-15T06:59:21;6.10;;;2.77;;
10230;SDS011;62604;49.432;8.680;2024-02-15T07:01:49;4.50;;;2.67;;
10230;SDS011;62604;49.432;8.680;2024-02-15T07:04:17;3.73;;;2.37;;
10230;SDS011;62604;49.432;8.680;2024-02-15T07:06:45;4.53;;;2.80;;
10230;SDS011;62604;49.432;8.680;2024-02-15T07:09:13;5.57;;;2.90;;
10230;SDS011;62604;49.432;8.680;2024-02-15T07:11:43;4.73;;;2.50;;
10230;SDS011;62604;49.432;8.680;2024-02-15T07:14:11;3.03;;;2.47;;
10230;SDS011;62604;49.432;8.680;2024-02-15T07:16:38;3.87;;;2.70;;
10230;SDS011;62604;49.432;8.680;2024-02-15T07:19:06;4.80;;;2.63;;
10230;SDS011;62604;49.432;8.680;2024-02-15T07:21:34;4.27;;;2.87;;
10230;SDS011;62604;49.432;8.680;2024-02-15T07:24:02;3.90;;;2.47;;
10230;SDS011;62604;49.432;8.680;2024-02-15T07:26:30;4.97;;;2.40;;
10230;SDS011;62604;49.432;8.680;2024-02-15T07:29:00;2.73;;;2.40;;
10230;SDS011;62604;49.432;8.680;2024-02-15T07:31:31;2.67;;;2.47;;
10230;SDS011;62604;49.432;8.680;2024-02-15T07:33:59;2.77;;;2.30;;
10230;SDS011;62604;49.432;8.680;2024-02-15T07:36:27;2.63;;;2.23;;
10230;SDS011;62604;49.432;8.680;2024-02-15T07:38:55;3.87;;;2.43;;
10230;SDS011;62604;49.432;8.680;2024-02-15T07:41:26;2.10;;;1.90;;
10230;SDS011;62604;49.432;8.680;2024-02-15T07:43:53;3.57;;;2.23;;
10230;SDS011;62604;49.432;8.680;2024-02-15T07:46:21;2.33;;;1.93;;
10230;SDS011;62604;49.432;8.680;2024-02-15T07:48:49;2.70;;;2.07;;
10230;SDS011;62604;49.432;8.680;2024-02-15T07:51:16;3.87;;;2.37;;
10230;SDS011;62604;49.432;8.680;2024-02-15T07:53:46;2.07;;;1.87;;
10230;SDS011;62604;49.432;8.680;2024-02-15T07:56:15;2.63;;;2.23;;
10230;SDS011;62604;49.432;8.680;2024-02-15T07:58:44;2.43;;;2.20;;
10230;SDS011;62604;49.432;8.680;2024-02-15T08:01:13;2.80;;;2.07;;
10230;SDS011;62604;49.432;8.680;2024-02-15T08:03:41;2.23;;;1.80;;
10230;SDS011;62604;49.432;8.680;2024-02-15T08:06:10;3.33;;;2.10;;
10230;SDS011;62604;49.432;8.680;2024-02-15T08:08:38;3.37;;;1.90;;
10230;SDS011;62604;49.432;8.680;2024-02-15T08:11:07;3.27;;;2.23;;
10230;SDS011;62604;49.432;8.680;2024-02-15T08:13:40;3.33;;;2.67;;
10230;SDS011;62604;49.432;8.680;2024-02-15T08:16:10;2.47;;;2.27;;
10230;SDS011;62604;49.432;8.680;2024-02-15T08:18:41;2.57;;;2.30;;
10230;SDS011;62604;49.432;8.680;2024-02-15T08:21:09;3.42;;;2.60;;
10230;SDS011;62604;49.432;8.680;2024-02-15T08:23:36;4.53;;;2.23;;
10230;SDS011;62604;49.432;8.680;2024-02-15T08:26:03;4.07;;;2.20;;
10230;SDS011;62604;49.432;8.680;2024-02-15T08:28:32;2.40;;;2.20;;
10230;SDS011;62604;49.432;8.680;2024-02-15T08:30:59;2.15;;;1.95;;
10230;SDS011;62604;49.432;8.680;2024-02-15T08:33:29;3.50;;;2.37;;
10230;SDS011;62604;49.432;8.680;2024-02-15T08:35:56;3.00;;;2.50;;
10230;SDS011;62604;49.432;8.680;2024-02-15T08:38:24;2.75;;;2.25;;
10230;SDS011;62604;49.432;8.680;2024-02-15T08:40:51;3.28;;;2.70;;
10230;SDS011;62604;49.432;8.680;2024-02-15T08:43:18;2.40;;;2.20;;
10230;SDS011;62604;49.432;8.680;2024-02-15T08:45:47;3.20;;;2.40;;
10230;SDS011;62604;49.432;8.680;2024-02-15T08:48:15;149.67;;;60.83;;
10230;SDS011;62604;49.432;8.680;2024-02-15T08:50:42;103.80;;;42.73;;
10230;SDS011;62604;49.432;8.680;2024-02-15T08:53:10;36.97;;;20.80;;
10230;SDS011;62604;49.432;8.680;2024-02-15T08:55:37;26.27;;;12.68;;
10230;SDS011;62604;49.432;8.680;2024-02-15T08:58:04;14.57;;;5.95;;
10230;SDS011;62604;49.432;8.680;2024-02-15T09:00:31;4.77;;;3.67;;
10230;SDS011;62604;49.432;8.680;2024-02-15T09:03:00;5.07;;;3.17;;
10230;SDS011;62604;49.432;8.680;2024-02-15T09:05:27;3.90;;;2.67;;
10230;SDS011;62604;49.432;8.680;2024-02-15T09:07:54;5.90;;;3.30;;
10230;SDS011;62604;49.432;8.680;2024-02-15T09:10:21;5.72;;;3.75;;
10230;SDS011;62604;49.432;8.680;2024-02-15T09:12:48;4.60;;;3.40;;
10230;SDS011;62604;49.432;8.680;2024-02-15T09:15:16;4.20;;;3.20;;
10230;SDS011;62604;49.432;8.680;2024-02-15T09:17:43;6.97;;;3.30;;
10230;SDS011;62604;49.432;8.680;2024-02-15T09:20:12;3.88;;;2.88;;
10230;SDS011;62604;49.432;8.680;2024-02-15T09:22:43;7.10;;;2.85;;
10230;SDS011;62604;49.432;8.680;2024-02-15T09:25:13;3.05;;;2.25;;
10230;SDS011;62604;49.432;8.680;2024-02-15T09:27:40;2.55;;;2.35;;
10230;SDS011;62604;49.432;8.680;2024-02-15T09:30:08;2.67;;;2.30;;
10230;SDS011;62604;49.432;8.680;2024-02-15T09:32:37;3.25;;;2.28;;
10230;SDS011;62604;49.432;8.680;2024-02-15T09:35:04;7.63;;;2.65;;
10230;SDS011;62604;49.432;8.680;2024-02-15T09:37:34;3.10;;;2.00;;
10230;SDS011;62604;49.432;8.680;2024-02-15T09:40:02;2.08;;;1.98;;
10230;SDS011;62604;49.432;8.680;2024-02-15T09:42:32;3.58;;;2.38;;
10230;SDS011;62604;49.432;8.680;2024-02-15T09:45:00;3.97;;;1.90;;
10230;SDS011;62604;49.432;8.680;2024-02-15T09:47:29;2.30;;;1.80;;
10230;SDS011;62604;49.432;8.680;2024-02-15T09:50:00;3.65;;;2.05;;
10230;SDS011;62604;49.432;8.680;2024-02-15T09:52:28;2.15;;;1.95;;
10230;SDS011;62604;49.432;8.680;2024-02-15T09:54:58;2.40;;;1.70;;
10230;SDS011;62604;49.432;8.680;2024-02-15T09:57:28;3.28;;;1.80;;
10230;SDS011;62604;49.432;8.680;2024-02-15T09:59:57;4.00;;;1.63;;
10230;SDS011;62604;49.432;8.680;2024-02-15T10:02:24;2.03;;;1.50;;
10230;SDS011;62604;49.432;8.680;2024-02-15T10:04:53;2.72;;;1.80;;
10230;SDS011;62604;49.432;8.680;2024-02-15T10:07:22;1.98;;;1.80;;
10230;SDS011;62604;49.432;8.680;2024-02-15T10:09:50;2.05;;;1.63;;
10230;SDS011;62604;49.432;8.680;2024-02-15T10:12:19;1.95;;;1.80;;
10230;SDS011;62604;49.432;8.680;2024-02-15T10:14:49;2.03;;;1.83;;
10230;SDS011;62604;49.432;8.680;2024-02-15T10:17:18;1.70;;;1.60;;
10230;SDS011;62604;49.432;8.680;2024-02-15T10:19:48;3.50;;;2.28;;
10230;SDS011;62604;49.432;8.680;2024-02-15T10:22:29;2.33;;;1.80;;
10230;SDS011;62604;49.432;8.680;2024-02-15T10:25:10;1.80;;;1.70;;
10230;SDS011;62604;49.432;8.680;2024-02-15T10:27:39;2.08;;;1.95;;
10230;SDS011;62604;49.432;8.680;2024-02-15T10:30:16;2.58;;;2.00;;
10230;SDS011;62604;49.432;8.680;2024-02-15T10:32:44;4.00;;;2.53;;
10230;SDS011;62604;49.432;8.680;2024-02-15T10:35:22;4.13;;;2.58;;
10230;SDS011;62604;49.432;8.680;2024-02-15T10:37:49;2.67;;;2.40;;
10230;SDS011;62604;49.432;8.680;2024-02-15T10:40:18;3.65;;;2.17;;
10230;SDS011;62604;49.432;8.680;2024-02-15T10:42:47;2.42;;;2.05;;
10230;SDS011;62604;49.432;8.680;2024-02-15T10:45:17;2.65;;;2.20;;
10230;SDS011;62604;49.432;8.680;2024-02-15T10:47:45;9.18;;;2.65;;
10230;SDS011;62604;49.432;8.680;2024-02-15T10:50:13;2.80;;;2.33;;
10230;SDS011;62604;49.432;8.680;2024-02-15T10:52:43;4.57;;;2.25;;
10230;SDS011;62604;49.432;8.680;2024-02-15T10:55:20;2.67;;;2.47;;
10230;SDS011;62604;49.432;8.680;2024-02-15T10:58:05;3.05;;;2.47;;
10230;SDS011;62604;49.432;8.680;2024-02-15T11:00:32;2.03;;;1.88;;
10230;SDS011;62604;49.432;8.680;2024-02-15T11:03:03;2.35;;;1.95;;
10230;SDS011;62604;49.432;8.680;2024-02-15T11:05:32;2.80;;;2.20;;
10230;SDS011;62604;49.432;8.680;2024-02-15T11:08:04;5.95;;;1.95;;
10230;SDS011;62604;49.432;8.680;2024-02-15T11:10:33;1.98;;;1.88;;
10230;SDS011;62604;49.432;8.680;2024-02-15T11:13:02;2.95;;;2.30;;
10230;SDS011;62604;49.432;8.680;2024-02-15T11:15:40;2.55;;;2.00;;
10230;SDS011;62604;49.432;8.680;2024-02-15T11:18:10;2.25;;;2.05;;
10230;SDS011;62604;49.432;8.680;2024-02-15T11:20:47;2.00;;;1.80;;
10230;SDS011;62604;49.432;8.680;2024-02-15T11:23:24;2.95;;;2.00;;
10230;SDS011;62604;49.432;8.680;2024-02-15T11:25:55;3.17;;;1.80;;
10230;SDS011;62604;49.432;8.680;2024-02-15T11:28:42;3.30;;;1.80;;
10230;SDS011;62604;49.432;8.680;2024-02-15T11:40:11;2.38;;;1.83;;
10230;SDS011;62604;49.432;8.680;2024-02-15T11:42:38;3.55;;;1.60;;
10230;SDS011;62604;49.432;8.680;2024-02-15T11:45:07;2.28;;;1.73;;
10230;SDS011;62604;49.432;8.680;2024-02-15T11:47:36;2.13;;;2.00;;
10230;SDS011;62604;49.432;8.680;2024-02-15T11:50:05;2.40;;;1.95;;
10230;SDS011;62604;49.432;8.680;2024-02-15T11:52:37;2.28;;;1.73;;
10230;SDS011;62604;49.432;8.680;2024-02-15T11:55:06;1.98;;;1.88;;
10230;SDS011;62604;49.432;8.680;2024-02-15T11:57:35;1.85;;;1.75;;
10230;SDS011;62604;49.432;8.680;2024-02-15T12:00:20;4.00;;;1.83;;
10230;SDS011;62604;49.432;8.680;2024-02-15T12:03:05;2.10;;;2.00;;
10230;SDS011;62604;49.432;8.680;2024-02-15T12:05:50;1.98;;;1.83;;
10230;SDS011;62604;49.432;8.680;2024-02-15T12:08:35;2.67;;;1.83;;
10230;SDS011;62604;49.432;8.680;2024-02-15T12:11:19;4.38;;;1.92;;
10230;SDS011;62604;49.432;8.680;2024-02-15T12:14:04;1.92;;;1.80;;
10230;SDS011;62604;49.432;8.680;2024-02-15T12:16:59;2.85;;;2.08;;
10230;SDS011;62604;49.432;8.680;2024-02-15T12:19:44;2.13;;;1.90;;
10230;SDS011;62604;49.432;8.680;2024-02-15T12:22:11;2.25;;;1.90;;
10230;SDS011;62604;49.432;8.680;2024-02-15T12:24:38;2.20;;;2.10;;
10230;SDS011;62604;49.432;8.680;2024-02-15T12:27:05;2.20;;;2.00;;
10230;SDS011;62604;49.432;8.680;2024-02-15T12:29:33;2.15;;;1.95;;
10230;SDS011;62604;49.432;8.680;2024-02-15T12:32:01;1.90;;;1.80;;
10230;SDS011;62604;49.432;8.680;2024-02-15T12:34:30;3.00;;;2.20;;
10230;SDS011;62604;49.432;8.680;2024-02-15T12:37:06;2.13;;;1.92;;
10230;SDS011;62604;49.432;8.680;2024-02-15T12:39:34;2.30;;;2.10;;
10230;SDS011;62604;49.432;8.680;2024-02-15T12:42:02;4.50;;;2.10;;
10230;SDS011;62604;49.432;8.680;2024-02-15T12:44:29;2.75;;;2.28;;
10230;SDS011;62604;49.432;8.680;2024-02-15T12:46:59;3.97;;;2.05;;
10230;SDS011;62604;49.432;8.680;2024-02-15T12:49:29;2.90;;;2.25;;
10230;SDS011;62604;49.432;8.680;2024-02-15T12:55:15;1.90;;;1.80;;
10230;SDS011;62604;49.432;8.680;2024-02-15T12:57:44;2.10;;;1.90;;
10230;SDS011;62604;49.432;8.680;2024-02-15T13:00:15;2.03;;;1.80;;
10230;SDS011;62604;49.432;8.680;2024-02-15T13:02:45;2.58;;;2.20;;
10230;SDS011;62604;49.432;8.680;2024-02-15T13:05:15;3.25;;;1.85;;
10230;SDS011;62604;49.432;8.680;2024-02-15T13:07:44;2.38;;;2.10;;
10230;SDS011;62604;49.432;8.680;2024-02-15T13:10:12;1.98;;;1.80;;
10230;SDS011;62604;49.432;8.680;2024-02-15T13:12:41;2.67;;;1.83;;
10230;SDS011;62604;49.432;8.680;2024-02-15T13:15:09;2.22;;;1.95;;
10230;SDS011;62604;49.432;8.680;2024-02-15T13:17:40;2.75;;;2.00;;
10230;SDS011;62604;49.432;8.680;2024-02-15T13:20:10;2.20;;;1.88;;
10230;SDS011;62604;49.432;8.680;2024-02-15T13:22:40;5.45;;;2.20;;
10230;SDS011;62604;49.432;8.680;2024-02-15T13:25:09;1.90;;;1.80;;
10230;SDS011;62604;49.432;8.680;2024-02-15T13:27:36;2.00;;;1.90;;
10230;SDS011;62604;49.432;8.680;2024-02-15T13:30:04;2.42;;;1.90;;
10230;SDS011;62604;49.432;8.680;2024-02-15T13:32:34;4.70;;;1.67;;
10230;SDS011;62604;49.432;8.680;2024-02-15T13:35:04;2.80;;;1.88;;
10230;SDS011;62604;49.432;8.680;2024-02-15T13:37:40;2.63;;;1.80;;
10230;SDS011;62604;49.432;8.680;2024-02-15T13:40:09;2.08;;;1.95;;
10230;SDS011;62604;49.432;8.680;2024-02-15T13:42:40;2.00;;;1.90;;
10230;SDS011;62604;49.432;8.680;2024-02-15T13:45:12;7.18;;;1.92;;
10230;SDS011;62604;49.432;8.680;2024-02-15T13:47:39;2.58;;;1.70;;
10230;SDS011;62604;49.432;8.680;2024-02-15T13:50:07;2.20;;;1.98;;
10230;SDS011;62604;49.432;8.680;2024-02-15T13:52:35;2.47;;;1.73;;
10230;SDS011;62604;49.432;8.680;2024-02-15T13:55:04;2.40;;;1.67;;
10230;SDS011;62604;49.432;8.680;2024-02-15T13:57:31;1.92;;;1.83;;
10230;SDS011;62604;49.432;8.680;2024-02-15T13:59:58;2.00;;;1.90;;
10230;SDS011;62604;49.432;8.680;2024-02-15T14:02:25;2.20;;;1.90;;
10230;SDS011;62604;49.432;8.680;2024-02-15T14:04:52;2.78;;;1.90;;
10230;SDS011;62604;49.432;8.680;2024-02-15T14:07:19;3.15;;;1.63;;
10230;SDS011;62604;49.432;8.680;2024-02-15T14:09:46;2.90;;;1.77;;
10230;SDS011;62604;49.432;8.680;2024-02-15T14:12:14;1.60;;;1.50;;
10230;SDS011;62604;49.432;8.680;2024-02-15T14:14:41;2.03;;;1.80;;
10230;SDS011;62604;49.432;8.680;2024-02-15T14:17:09;2.83;;;1.60;;
10230;SDS011;62604;49.432;8.680;2024-02-15T14:19:36;1.98;;;1.77;;
10230;SDS011;62604;49.432;8.680;2024-02-15T14:22:03;2.45;;;1.80;;
10230;SDS011;62604;49.432;8.680;2024-02-15T14:24:34;2.35;;;1.70;;
10230;SDS011;62604;49.432;8.680;2024-02-15T14:27:03;1.67;;;1.58;;
10230;SDS011;62604;49.432;8.680;2024-02-15T14:29:32;2.90;;;1.90;;
10230;SDS011;62604;49.432;8.680;2024-02-15T14:32:02;1.77;;;1.67;;
10230;SDS011;62604;49.432;8.680;2024-02-15T14:34:48;2.10;;;1.90;;
10230;SDS011;62604;49.432;8.680;2024-02-15T14:37:16;3.33;;;1.88;;
10230;SDS011;62604;49.432;8.680;2024-02-15T14:39:44;2.08;;;1.88;;
10230;SDS011;62604;49.432;8.680;2024-02-15T14:42:11;2.00;;;1.80;;
10230;SDS011;62604;49.432;8.680;2024-02-15T14:44:40;3.22;;;1.83;;
10230;SDS011;62604;49.432;8.680;2024-02-15T14:47:08;2.20;;;1.98;;
10230;SDS011;62604;49.432;8.680;2024-02-15T14:49:36;2.50;;;1.88;;
10230;SDS011;62604;49.432;8.680;2024-02-15T14:52:03;2.42;;;1.70;;
10230;SDS011;62604;49.432;8.680;2024-02-15T14:54:30;1.95;;;1.75;;
10230;SDS011;62604;49.432;8.680;2024-02-15T14:56:58;3.25;;;1.98;;
10230;SDS011;62604;49.432;8.680;2024-02-15T14:59:26;2.63;;;1.83;;
10230;SDS011;62604;49.432;8.680;2024-02-15T15:01:55;4.40;;;2.00;;
10230;SDS011;62604;49.432;8.680;2024-02-15T15:04:22;2.60;;;1.58;;
10230;SDS011;62604;49.432;8.680;2024-02-15T15:06:51;2.22;;;1.75;;
10230;SDS011;62604;49.432;8.680;2024-02-15T15:09:36;2.20;;;1.60;;
10230;SDS011;62604;49.432;8.680;2024-02-15T15:12:20;2.05;;;1.85;;